Time;durP1;ratioP1;P1;durP2;ratioP2;P2;SDS_P1;SDS_P2;PMS_P1;PMS_P2;Temp;Humidity;BMP_temperature;BMP_pressure;BME280_temperature;BME280_humidity;BME280_pressure;Samples;Min_cycle;Max_cycle;Signal;HPM_P1;HPM_P2
2023/11/10 00:00:00;;;;;;;2.90;2.70;;;10.30;99.90;;;;;;5074698;28;20422;-72
2023/11/10 00:02:26;;;;;;;2.50;2.20;;;10.50;99.90;;;;;;5073917;28;20408;-74
2023/11/10 00:04:51;;;;;;;3.43;2.50;;;10.40;99.90;;;;;;5074908;28;20419;-73
2023/11/10 00:07:17;;;;;;;2.87;2.30;;;10.30;99.90;;;;;;5075057;28;20470;-73
2023/11/10 00:09:45;;;;;;;2.93;2.73;;;10.30;99.90;;;;;;5072908;28;20253;-74
2023/11/10 00:12:14;;;;;;;2.77;2.67;;;10.40;99.90;;;;;;5070266;28;20772;-73
2023/11/10 00:14:41;;;;;;;3.60;2.23;;;10.10;99.90;;;;;;5053993;28;20395;-72
2023/11/10 00:17:10;;;;;;;2.10;2.00;;;10.10;99.90;;;;;;5049473;28;20548;-73
2023/11/10 00:19:41;;;;;;;3.33;2.00;;;10.10;99.90;;;;;;5054140;28;20425;-73
2023/11/10 00:22:09;;;;;;;2.27;2.07;;;10.10;99.90;;;;;;5054807;28;20953;-73
2023/11/10 00:24:39;;;;;;;1.83;1.73;;;10.20;99.90;;;;;;5054088;28;20413;-73
2023/11/10 00:27:07;;;;;;;2.10;2.00;;;10.20;99.90;;;;;;5054091;28;20453;-73
2023/11/10 00:29:33;;;;;;;2.13;2.03;;;10.30;99.90;;;;;;5053793;28;20416;-73
2023/11/10 00:31:59;;;;;;;2.30;2.20;;;10.20;99.90;;;;;;5054066;28;20434;-73
2023/11/10 00:34:25;;;;;;;2.00;1.90;;;9.90;99.90;;;;;;5054042;28;20909;-72
2023/11/10 00:36:51;;;;;;;1.90;1.80;;;10.10;99.90;;;;;;5053910;28;20463;-73
2023/11/10 00:39:19;;;;;;;2.50;1.80;;;10.20;99.90;;;;;;5053935;28;20193;-72
2023/11/10 00:41:46;;;;;;;6.43;2.07;;;10.20;99.90;;;;;;5053542;28;20200;-73
2023/11/10 00:44:11;;;;;;;1.97;1.60;;;10.20;99.90;;;;;;5054068;28;20456;-73
2023/11/10 00:46:37;;;;;;;1.60;1.60;;;10.20;99.90;;;;;;5052739;28;20957;-73
2023/11/10 00:49:03;;;;;;;1.67;1.57;;;10.10;99.90;;;;;;5036690;28;20176;-70
2023/11/10 00:51:32;;;;;;;1.80;1.80;;;10.10;99.90;;;;;;5053166;28;20617;-74
2023/11/10 00:53:58;;;;;;;1.70;1.60;;;10.10;99.90;;;;;;5054121;28;20525;-73
2023/11/10 00:56:23;;;;;;;2.73;2.10;;;10.20;99.90;;;;;;5054195;28;20408;-73
2023/11/10 00:58:49;;;;;;;2.17;2.07;;;10.20;99.90;;;;;;5053342;28;20447;-74
2023/11/10 01:01:15;;;;;;;2.20;1.60;;;10.50;99.90;;;;;;5053556;28;20206;-74
2023/11/10 01:03:42;;;;;;;3.03;1.70;;;10.50;99.90;;;;;;5052592;28;20182;-74
2023/11/10 01:06:08;;;;;;;4.17;1.87;;;10.30;99.90;;;;;;5052695;28;20173;-73
2023/11/10 01:08:34;;;;;;;2.03;1.57;;;10.40;99.90;;;;;;5052447;28;20926;-73
2023/11/10 01:10:59;;;;;;;1.80;1.30;;;10.40;99.90;;;;;;5053422;28;20184;-73
2023/11/10 01:13:25;;;;;;;1.30;1.20;;;10.40;99.90;;;;;;5052993;28;20183;-73
2023/11/10 01:15:51;;;;;;;1.50;1.40;;;10.20;99.90;;;;;;5051395;28;20279;-71
2023/11/10 01:18:17;;;;;;;1.63;1.53;;;10.10;99.90;;;;;;5052733;28;20456;-73
2023/11/10 01:20:43;;;;;;;1.47;1.37;;;10.00;99.90;;;;;;5051989;28;20782;-73
2023/11/10 01:23:09;;;;;;;3.00;1.50;;;10.20;99.90;;;;;;5052478;28;21134;-73
2023/11/10 01:25:35;;;;;;;2.03;1.13;;;10.20;99.90;;;;;;5052115;28;20181;-73
2023/11/10 01:28:01;;;;;;;1.90;1.83;;;10.30;99.90;;;;;;5053031;28;20180;-73
2023/11/10 01:30:26;;;;;;;2.03;1.53;;;10.40;99.90;;;;;;5053426;28;20906;-63
2023/11/10 01:32:52;;;;;;;1.67;1.57;;;10.50;99.90;;;;;;5052106;28;20182;-73
2023/11/10 01:35:18;;;;;;;1.77;1.67;;;10.50;99.90;;;;;;5052475;28;20225;-73
2023/11/10 01:37:43;;;;;;;1.70;1.60;;;10.60;99.90;;;;;;5052740;28;20198;-73
2023/11/10 01:40:10;;;;;;;2.97;2.00;;;10.60;99.90;;;;;;5052770;28;20202;-73
2023/11/10 01:42:36;;;;;;;4.73;2.47;;;10.50;99.90;;;;;;5034509;28;20194;-73
2023/11/10 01:45:02;;;;;;;2.53;2.20;;;10.60;99.90;;;;;;5052221;28;20879;-72
2023/11/10 01:47:29;;;;;;;2.10;1.90;;;10.50;99.90;;;;;;5052002;28;20272;-61
2023/11/10 01:49:54;;;;;;;3.80;1.80;;;10.60;99.90;;;;;;5052222;28;20880;-73
2023/11/10 01:52:20;;;;;;;2.37;1.80;;;10.60;99.90;;;;;;5052289;28;20558;-72
2023/11/10 01:54:48;;;;;;;2.03;1.93;;;10.70;99.90;;;;;;5051975;28;20169;-73
2023/11/10 01:57:14;;;;;;;2.10;1.90;;;10.50;99.90;;;;;;5052687;28;20283;-74
2023/11/10 01:59:41;;;;;;;2.50;1.60;;;10.70;99.90;;;;;;5051894;28;20529;-73
2023/11/10 02:02:09;;;;;;;2.33;2.00;;;10.70;99.90;;;;;;5052826;28;20200;-73
2023/11/10 02:04:36;;;;;;;2.00;1.90;;;10.70;99.90;;;;;;5051440;28;20424;-73
2023/11/10 02:07:02;;;;;;;1.60;1.50;;;10.70;99.90;;;;;;5053006;28;20395;-73
2023/11/10 02:09:28;;;;;;;1.53;1.43;;;10.90;99.90;;;;;;5051809;28;20416;-73
2023/11/10 02:11:54;;;;;;;2.00;1.90;;;10.70;99.90;;;;;;5051879;28;20427;-72
2023/11/10 02:14:19;;;;;;;1.90;1.80;;;10.70;99.90;;;;;;5052275;28;20412;-72
2023/11/10 02:16:45;;;;;;;2.50;1.70;;;10.50;99.90;;;;;;5063395;28;20549;-71
2023/11/10 02:19:15;;;;;;;1.70;1.57;;;10.50;99.90;;;;;;5063424;28;20183;-72
2023/11/10 02:21:45;;;;;;;1.80;1.70;;;10.50;99.90;;;;;;5065885;28;20573;-72
2023/11/10 02:24:12;;;;;;;2.53;1.83;;;10.50;99.90;;;;;;5072294;28;20797;-72
2023/11/10 02:26:41;;;;;;;1.73;1.63;;;10.50;99.90;;;;;;5071177;28;20446;-72
2023/11/10 02:29:10;;;;;;;3.23;1.80;;;10.40;99.90;;;;;;5071784;28;20911;-72
2023/11/10 02:31:36;;;;;;;1.97;1.50;;;10.50;99.90;;;;;;5071410;28;20416;-72
2023/11/10 02:34:03;;;;;;;1.37;1.37;;;10.50;99.90;;;;;;5071929;28;20931;-72
2023/11/10 02:36:29;;;;;;;2.03;1.50;;;10.60;99.90;;;;;;5071910;28;20441;-72
2023/11/10 02:38:55;;;;;;;1.30;1.20;;;10.50;99.90;;;;;;5070308;28;20869;-72
2023/11/10 02:41:20;;;;;;;1.40;1.40;;;10.60;99.90;;;;;;5071655;28;20241;-72
2023/11/10 02:43:46;;;;;;;1.80;1.70;;;10.50;99.90;;;;;;5069810;28;20188;-72
2023/11/10 02:46:12;;;;;;;3.50;1.50;;;10.50;99.90;;;;;;5071353;28;20263;-72
2023/11/10 02:48:39;;;;;;;1.97;1.50;;;10.60;99.90;;;;;;5066977;28;20235;-72
2023/11/10 02:51:05;;;;;;;1.60;1.40;;;10.60;99.90;;;;;;5063658;28;20429;-72
2023/11/10 02:53:32;;;;;;;1.83;1.73;;;10.60;99.90;;;;;;5071775;28;20461;-72
2023/11/10 02:55:57;;;;;;;1.30;1.30;;;10.60;99.90;;;;;;5072190;28;20423;-72
2023/11/10 02:58:23;;;;;;;1.87;1.70;;;10.60;99.90;;;;;;5071563;28;20500;-72
2023/11/10 03:00:53;;;;;;;1.40;1.40;;;10.60;99.90;;;;;;5071099;28;20177;-72
2023/11/10 03:03:19;;;;;;;3.03;1.53;;;10.50;99.90;;;;;;5072041;28;20176;-72
2023/11/10 03:05:45;;;;;;;1.50;1.40;;;10.50;99.90;;;;;;5071257;28;20500;-72
2023/11/10 03:08:11;;;;;;;1.73;1.33;;;10.60;99.90;;;;;;5070816;28;20463;-72
2023/11/10 03:10:37;;;;;;;4.63;1.67;;;10.50;99.90;;;;;;5069883;28;20180;-72
2023/11/10 03:13:03;;;;;;;1.40;1.30;;;10.60;99.90;;;;;;5070532;28;20427;-72
2023/11/10 03:15:29;;;;;;;1.70;1.60;;;10.50;99.90;;;;;;5062538;28;20657;-72
2023/11/10 03:17:58;;;;;;;1.60;1.50;;;10.50;99.90;;;;;;5051035;28;20464;-72
2023/11/10 03:20:24;;;;;;;1.80;1.70;;;10.50;99.90;;;;;;5051602;28;20426;-72
2023/11/10 03:22:50;;;;;;;3.97;1.73;;;10.50;99.90;;;;;;5050891;28;20494;-72
2023/11/10 03:25:16;;;;;;;1.60;1.50;;;10.50;99.90;;;;;;5051668;28;20184;-72
2023/11/10 03:27:42;;;;;;;2.20;1.70;;;10.50;99.90;;;;;;5050185;28;20420;-71
2023/11/10 03:30:09;;;;;;;2.00;1.90;;;10.40;99.90;;;;;;5052059;28;20172;-72
2023/11/10 03:32:35;;;;;;;4.30;1.70;;;10.30;99.90;;;;;;5054212;28;20201;-63
2023/11/10 03:35:01;;;;;;;1.70;1.70;;;10.30;99.90;;;;;;5055305;28;20446;-72
2023/11/10 03:37:26;;;;;;;1.90;1.77;;;10.20;99.90;;;;;;5055671;28;20467;-73
2023/11/10 03:39:52;;;;;;;2.07;1.97;;;10.40;99.90;;;;;;5054489;28;20421;-72
2023/11/10 03:42:18;;;;;;;2.30;2.00;;;10.30;99.90;;;;;;5055746;28;20259;-72
2023/11/10 03:44:44;;;;;;;1.97;1.90;;;10.30;99.90;;;;;;5053620;28;20175;-72
2023/11/10 03:47:09;;;;;;;1.93;1.83;;;10.40;99.90;;;;;;5053555;28;20683;-71
2023/11/10 03:49:37;;;;;;;2.37;2.27;;;10.30;99.90;;;;;;5054191;28;20177;-59
2023/11/10 03:52:03;;;;;;;2.57;2.40;;;10.50;99.90;;;;;;5054986;28;20520;-72
2023/11/10 03:54:29;;;;;;;2.20;2.10;;;10.30;99.90;;;;;;5055294;28;20418;-71
2023/11/10 03:56:55;;;;;;;2.50;2.40;;;10.20;99.90;;;;;;5054363;28;20436;-72
2023/11/10 03:59:21;;;;;;;2.70;2.33;;;10.40;99.90;;;;;;5037425;28;20753;-72
2023/11/10 04:01:46;;;;;;;2.37;2.27;;;10.40;99.90;;;;;;5036228;28;20419;-72
2023/11/10 04:04:12;;;;;;;2.30;2.20;;;10.40;99.90;;;;;;5054712;28;20681;-72
2023/11/10 04:06:38;;;;;;;2.20;2.10;;;10.40;99.90;;;;;;5054676;28;20170;-71
2023/11/10 04:09:04;;;;;;;2.43;2.33;;;10.40;99.90;;;;;;5054121;28;20181;-71
2023/11/10 04:11:29;;;;;;;2.30;2.20;;;10.40;99.90;;;;;;5054666;28;20181;-71
2023/11/10 04:13:56;;;;;;;2.93;2.60;;;10.30;99.90;;;;;;5053898;28;20574;-72
2023/11/10 04:16:23;;;;;;;2.70;2.50;;;10.20;99.90;;;;;;5053675;28;20223;-71
2023/11/10 04:18:49;;;;;;;2.97;2.87;;;10.20;99.90;;;;;;5034952;28;20456;-79
2023/11/10 04:21:22;;;;;;;2.80;2.70;;;10.30;99.90;;;;;;5054567;28;20416;-79
2023/11/10 04:23:48;;;;;;;2.93;2.47;;;10.40;99.90;;;;;;5053555;28;20441;-80
2023/11/10 04:26:14;;;;;;;2.60;2.50;;;10.40;99.90;;;;;;5054598;28;20443;-80
2023/11/10 04:28:47;;;;;;;2.53;2.40;;;10.50;99.90;;;;;;5053566;28;20927;-79
2023/11/10 04:31:17;;;;;;;2.90;2.70;;;10.50;99.90;;;;;;5054088;28;20408;-73
2023/11/10 04:33:43;;;;;;;3.17;2.90;;;10.50;99.90;;;;;;5053882;28;20413;-81
2023/11/10 04:36:12;;;;;;;3.17;2.50;;;10.70;99.90;;;;;;5054107;28;20553;-77
2023/11/10 04:38:38;;;;;;;2.87;2.60;;;10.60;99.90;;;;;;5053673;28;20471;-61
2023/11/10 04:41:04;;;;;;;2.87;2.63;;;10.70;99.90;;;;;;5054618;28;20447;-78
2023/11/10 04:43:30;;;;;;;4.43;4.23;;;10.50;99.90;;;;;;5053502;28;20415;-79
2023/11/10 04:45:55;;;;;;;2.50;1.73;;;10.60;99.90;;;;;;5052443;28;20178;-79
2023/11/10 04:48:22;;;;;;;1.97;1.87;;;10.60;99.90;;;;;;5053686;28;20208;-76
2023/11/10 04:50:48;;;;;;;4.10;2.27;;;10.60;99.90;;;;;;5035466;28;20186;-78
2023/11/10 04:53:14;;;;;;;4.13;3.63;;;10.60;99.90;;;;;;5054044;28;20422;-78
2023/11/10 04:55:40;;;;;;;5.40;3.80;;;10.60;99.90;;;;;;5053056;28;20416;-66
2023/11/10 04:58:06;;;;;;;4.80;3.90;;;10.60;99.90;;;;;;5053825;28;20444;-79
2023/11/10 05:00:33;;;;;;;5.37;4.93;;;10.60;99.90;;;;;;5036118;28;20399;-80
2023/11/10 05:03:03;;;;;;;4.10;3.90;;;10.60;99.90;;;;;;5053440;28;20694;-80
2023/11/10 05:05:29;;;;;;;2.87;2.20;;;10.50;99.90;;;;;;5053580;28;20509;-80
2023/11/10 05:07:55;;;;;;;2.57;2.20;;;10.50;99.90;;;;;;5052211;28;20477;-77
2023/11/10 05:10:21;;;;;;;3.70;3.50;;;10.50;99.90;;;;;;5052985;28;20817;-80
2023/11/10 05:12:47;;;;;;;3.10;2.90;;;10.50;99.90;;;;;;5052770;28;20505;-79
2023/11/10 05:15:13;;;;;;;2.57;2.37;;;10.50;99.90;;;;;;5052550;28;20470;-79
2023/11/10 05:17:41;;;;;;;4.20;3.90;;;10.50;99.90;;;;;;5053104;28;20203;-79
2023/11/10 05:20:08;;;;;;;2.87;2.70;;;10.40;99.90;;;;;;5053401;28;20778;-78
2023/11/10 05:22:33;;;;;;;4.87;1.90;;;10.50;99.90;;;;;;5053272;28;20416;-80
2023/11/10 05:25:02;;;;;;;3.33;3.03;;;10.40;99.90;;;;;;5052824;28;20502;-78
2023/11/10 05:27:28;;;;;;;3.40;3.20;;;10.50;99.90;;;;;;5052370;28;20424;-79
2023/11/10 05:29:54;;;;;;;3.10;2.90;;;10.40;99.90;;;;;;5034808;28;20771;-78
2023/11/10 05:32:20;;;;;;;2.73;2.53;;;10.40;99.90;;;;;;5052687;28;20411;-79
2023/11/10 05:34:46;;;;;;;1.90;1.80;;;10.30;99.90;;;;;;5035150;28;20267;-79
2023/11/10 05:37:12;;;;;;;3.97;3.70;;;10.50;99.90;;;;;;5034911;28;20421;-78
2023/11/10 05:39:38;;;;;;;2.50;2.10;;;10.50;99.90;;;;;;5052996;28;20266;-78
2023/11/10 05:42:04;;;;;;;3.90;3.70;;;10.50;99.90;;;;;;5052603;28;20189;-77
2023/11/10 05:44:29;;;;;;;2.43;2.17;;;10.50;99.90;;;;;;5051233;28;20426;-78
2023/11/10 05:46:55;;;;;;;2.13;1.93;;;10.50;99.90;;;;;;5051490;28;20794;-78
2023/11/10 05:49:21;;;;;;;3.40;3.13;;;10.50;99.90;;;;;;5052893;28;20185;-78
2023/11/10 05:51:47;;;;;;;5.60;2.50;;;10.50;99.90;;;;;;5051941;28;20174;-77
2023/11/10 05:54:13;;;;;;;2.37;2.20;;;10.20;99.90;;;;;;5052700;28;20606;-79
2023/11/10 05:56:39;;;;;;;4.10;3.70;;;10.40;99.90;;;;;;5051686;28;20173;-79
2023/11/10 05:59:05;;;;;;;2.60;2.33;;;10.30;99.90;;;;;;5051755;28;20520;-79
2023/11/10 06:01:31;;;;;;;3.60;3.13;;;10.20;99.90;;;;;;5052733;28;20416;-80
2023/11/10 06:03:56;;;;;;;3.07;2.87;;;10.40;99.90;;;;;;5052044;28;20932;-79
2023/11/10 06:06:24;;;;;;;2.87;2.67;;;10.50;99.90;;;;;;5052191;28;20815;-78
2023/11/10 06:08:50;;;;;;;3.63;2.03;;;10.50;99.90;;;;;;5052042;28;20174;-79
2023/11/10 06:11:20;;;;;;;3.67;3.47;;;10.50;99.90;;;;;;5052536;28;20411;-79
2023/11/10 06:13:48;;;;;;;2.00;1.90;;;10.50;99.90;;;;;;5050196;28;20482;-71
2023/11/10 06:16:18;;;;;;;3.10;2.43;;;10.50;99.90;;;;;;5035449;28;20510;-81
2023/11/10 06:18:44;;;;;;;2.30;2.20;;;10.50;99.90;;;;;;5051832;28;20511;-61
2023/11/10 06:21:11;;;;;;;3.97;3.60;;;10.50;99.90;;;;;;5052094;28;20424;-78
2023/11/10 06:23:37;;;;;;;3.50;3.20;;;10.50;99.90;;;;;;5034437;28;20572;-79
2023/11/10 06:26:05;;;;;;;3.70;3.27;;;10.70;99.90;;;;;;5051434;28;20415;-79
2023/11/10 06:28:31;;;;;;;3.63;3.53;;;10.60;99.90;;;;;;5051482;28;20427;-78
2023/11/10 06:30:57;;;;;;;2.20;2.10;;;10.60;99.90;;;;;;5033457;28;20411;-79
2023/11/10 06:33:26;;;;;;;1.90;1.80;;;10.60;99.90;;;;;;5051989;28;20422;-77
2023/11/10 06:35:52;;;;;;;3.80;2.60;;;10.90;99.90;;;;;;5051579;28;20421;-78
2023/11/10 06:38:18;;;;;;;2.87;2.67;;;10.70;99.90;;;;;;5052126;28;20447;-78
2023/11/10 06:40:44;;;;;;;3.20;3.00;;;10.90;99.90;;;;;;5051479;28;20200;-78
2023/11/10 06:43:10;;;;;;;3.03;2.93;;;10.70;99.90;;;;;;5050374;28;20177;-79
2023/11/10 06:45:36;;;;;;;2.77;2.67;;;10.70;99.90;;;;;;5051365;28;20500;-71
2023/11/10 06:48:03;;;;;;;3.80;3.07;;;10.80;99.90;;;;;;5049881;28;20511;-71
2023/11/10 06:50:31;;;;;;;4.23;3.83;;;10.80;99.90;;;;;;5051538;28;20488;-71
2023/11/10 06:52:58;;;;;;;2.30;2.20;;;10.80;99.90;;;;;;5050374;28;20874;-71
2023/11/10 06:55:24;;;;;;;4.83;2.83;;;10.80;99.90;;;;;;5052270;28;20408;-71
2023/11/10 06:57:51;;;;;;;6.33;3.50;;;10.70;99.90;;;;;;5050975;28;20461;-70
2023/11/10 07:00:17;;;;;;;3.80;2.60;;;10.70;99.90;;;;;;5052050;28;20441;-66
2023/11/10 07:02:43;;;;;;;2.50;2.30;;;10.70;99.90;;;;;;5051366;28;20813;-69
2023/11/10 07:05:09;;;;;;;3.40;3.10;;;10.70;99.90;;;;;;5051495;28;20757;-70
2023/11/10 07:07:38;;;;;;;2.57;2.37;;;10.70;99.90;;;;;;5055108;28;20416;-70
2023/11/10 07:10:05;;;;;;;2.50;2.30;;;10.70;99.90;;;;;;5055496;28;20423;-70
2023/11/10 07:12:31;;;;;;;5.17;2.90;;;10.60;99.90;;;;;;5035287;28;20849;-69
2023/11/10 07:14:58;;;;;;;3.40;3.20;;;10.60;99.90;;;;;;5054665;28;20453;-69
2023/11/10 07:17:26;;;;;;;3.20;3.00;;;10.60;99.90;;;;;;5054331;28;20979;-69
2023/11/10 07:19:52;;;;;;;5.80;3.10;;;10.70;99.90;;;;;;5053442;28;20538;-62
2023/11/10 07:22:18;;;;;;;2.70;2.50;;;10.70;99.90;;;;;;5053196;28;20437;-70
2023/11/10 07:24:43;;;;;;;4.17;3.87;;;10.70;99.90;;;;;;5041741;28;20803;-69
2023/11/10 07:27:10;;;;;;;5.10;2.87;;;10.60;99.90;;;;;;5053670;28;20170;-70
2023/11/10 07:29:36;;;;;;;3.43;3.23;;;10.60;99.90;;;;;;5055861;28;20168;-70
2023/11/10 07:32:02;;;;;;;4.90;3.00;;;10.70;99.90;;;;;;5053626;28;20966;-69
2023/11/10 07:34:29;;;;;;;3.27;2.53;;;10.70;99.90;;;;;;5051176;28;20908;-69
2023/11/10 07:36:59;;;;;;;3.23;3.03;;;10.70;99.90;;;;;;5053580;28;20510;-70
2023/11/10 07:39:30;;;;;;;3.63;3.27;;;10.70;99.90;;;;;;5053385;28;20460;-70
2023/11/10 07:41:56;;;;;;;3.10;2.90;;;10.60;99.90;;;;;;5054117;28;20479;-70
2023/11/10 07:44:22;;;;;;;3.23;3.00;;;10.60;99.90;;;;;;5055787;28;20399;-70
2023/11/10 07:46:49;;;;;;;3.60;3.40;;;10.60;99.90;;;;;;5055761;28;20455;-70
2023/11/10 07:49:14;;;;;;;3.90;3.37;;;10.60;99.90;;;;;;5055195;28;20426;-69
2023/11/10 07:51:40;;;;;;;2.80;2.60;;;10.60;99.90;;;;;;5055007;28;20417;-70
2023/11/10 07:54:06;;;;;;;2.70;2.50;;;10.60;99.90;;;;;;5054630;28;20183;-69
2023/11/10 07:56:31;;;;;;;3.13;2.93;;;10.70;99.90;;;;;;5054718;28;20173;-70
2023/11/10 07:58:57;;;;;;;4.00;3.17;;;10.70;99.90;;;;;;5053297;28;20211;-70
2023/11/10 08:01:23;;;;;;;4.40;3.83;;;10.70;99.90;;;;;;5055467;28;20166;-70
2023/11/10 08:03:49;;;;;;;6.53;6.20;;;10.80;99.90;;;;;;5054746;28;20242;-69
2023/11/10 08:06:15;;;;;;;2.73;2.40;;;10.80;99.90;;;;;;5054790;28;20174;-70
2023/11/10 08:08:42;;;;;;;4.20;4.00;;;10.80;99.90;;;;;;5054602;28;20463;-64
2023/11/10 08:11:11;;;;;;;3.43;3.23;;;10.90;99.90;;;;;;5053874;28;20176;-67
2023/11/10 08:13:38;;;;;;;3.00;2.73;;;10.80;99.90;;;;;;5054079;28;20417;-68
2023/11/10 08:16:06;;;;;;;3.87;3.77;;;10.90;99.90;;;;;;5051543;28;20801;-67
2023/11/10 08:18:32;;;;;;;2.47;2.27;;;11.00;99.90;;;;;;5051403;28;20451;-67
2023/11/10 08:20:57;;;;;;;2.40;2.20;;;10.90;99.90;;;;;;5036643;28;20426;-67
2023/11/10 08:23:23;;;;;;;4.30;4.10;;;11.00;99.90;;;;;;5054142;28;20174;-68
2023/11/10 08:25:52;;;;;;;3.10;2.90;;;11.00;99.90;;;;;;5054521;28;20170;-68
2023/11/10 08:28:18;;;;;;;3.50;2.37;;;11.10;99.90;;;;;;5054047;28;20260;-68
2023/11/10 08:30:44;;;;;;;3.43;3.23;;;11.20;99.90;;;;;;5053583;28;20432;-67
2023/11/10 08:33:10;;;;;;;4.73;4.33;;;11.20;99.90;;;;;;5050697;28;20423;-67
2023/11/10 08:35:39;;;;;;;2.83;2.73;;;11.30;99.90;;;;;;5054088;28;20440;-67
2023/11/10 08:38:05;;;;;;;3.13;2.90;;;11.50;99.90;;;;;;5054004;28;20244;-67
2023/11/10 08:40:31;;;;;;;2.70;2.60;;;11.50;99.90;;;;;;5054563;28;20457;-67
2023/11/10 08:42:57;;;;;;;3.67;3.40;;;11.70;99.90;;;;;;5053963;28;20400;-67
2023/11/10 08:45:24;;;;;;;3.57;3.10;;;11.80;99.90;;;;;;5054893;28;20177;-68
2023/11/10 08:47:50;;;;;;;3.03;2.80;;;11.80;99.90;;;;;;5054451;28;20576;-68
2023/11/10 08:50:16;;;;;;;3.23;3.00;;;12.00;99.90;;;;;;5053794;28;20454;-68
2023/11/10 08:52:42;;;;;;;3.00;2.80;;;11.90;99.90;;;;;;5052430;28;20430;-67
2023/11/10 08:55:11;;;;;;;3.80;3.00;;;12.00;99.90;;;;;;5053745;28;20416;-67
2023/11/10 08:57:38;;;;;;;5.93;3.10;;;12.10;99.90;;;;;;5054144;28;20909;-68
2023/11/10 09:00:06;;;;;;;2.60;2.50;;;12.30;99.90;;;;;;5053619;28;20877;-67
2023/11/10 09:02:32;;;;;;;2.40;2.30;;;12.70;99.90;;;;;;5054327;28;20407;-67
2023/11/10 09:04:59;;;;;;;4.10;3.80;;;13.20;99.90;;;;;;5052281;28;20558;-67
2023/11/10 09:07:24;;;;;;;3.50;3.10;;;13.70;99.90;;;;;;5054090;28;20173;-68
2023/11/10 09:09:50;;;;;;;3.70;3.50;;;13.90;99.90;;;;;;5054017;28;20421;-68
2023/11/10 09:12:17;;;;;;;2.20;1.83;;;13.90;99.90;;;;;;5053090;28;20632;-67
2023/11/10 09:14:42;;;;;;;2.30;2.20;;;13.80;99.90;;;;;;5054694;28;20581;-67
2023/11/10 09:17:08;;;;;;;4.00;3.80;;;13.70;99.90;;;;;;5093038;28;20588;-67
2023/11/10 09:19:34;;;;;;;3.57;3.27;;;13.70;99.90;;;;;;5094031;28;20255;-69
2023/11/10 09:22:00;;;;;;;3.57;3.37;;;13.70;99.90;;;;;;5087920;28;20253;-67
2023/11/10 09:24:25;;;;;;;2.63;2.43;;;13.70;99.90;;;;;;5075851;28;20611;-69
2023/11/10 09:26:51;;;;;;;2.00;1.90;;;13.80;99.90;;;;;;5093969;28;20159;-68
2023/11/10 09:29:17;;;;;;;3.67;3.37;;;13.80;99.90;;;;;;5083637;28;20272;-68
2023/11/10 09:31:43;;;;;;;2.83;2.60;;;13.80;99.90;;;;;;5083132;28;20619;-68
2023/11/10 09:34:08;;;;;;;4.50;4.30;;;13.60;99.90;;;;;;5092963;28;20266;-68
2023/11/10 09:36:37;;;;;;;4.33;3.90;;;13.20;99.90;;;;;;5075718;28;20179;-68
2023/11/10 09:39:05;;;;;;;2.23;2.00;;;13.20;99.90;;;;;;5093326;28;20487;-69
2023/11/10 09:41:41;;;;;;;3.70;3.50;;;13.10;99.90;;;;;;5093815;28;20406;-69
2023/11/10 09:44:13;;;;;;;3.20;2.90;;;13.30;99.90;;;;;;5088368;28;20749;-67
2023/11/10 09:46:40;;;;;;;3.40;3.00;;;13.50;99.90;;;;;;5088696;28;20504;-69
2023/11/10 09:49:09;;;;;;;2.47;1.70;;;13.70;99.90;;;;;;5093031;28;20783;-69
2023/11/10 09:51:35;;;;;;;3.67;3.30;;;13.80;99.90;;;;;;5075008;28;20516;-69
2023/11/10 09:54:03;;;;;;;3.20;3.00;;;14.00;99.30;;;;;;5092899;28;20832;-67
2023/11/10 09:56:31;;;;;;;2.50;2.00;;;14.30;98.90;;;;;;5058525;28;20839;-69
2023/11/10 09:58:59;;;;;;;3.60;3.30;;;14.50;97.70;;;;;;5092916;28;20442;-60
2023/11/10 10:01:26;;;;;;;2.97;2.77;;;14.80;97.20;;;;;;5093281;28;20415;-69
2023/11/10 10:03:52;;;;;;;2.20;2.10;;;15.00;96.90;;;;;;5093370;28;20395;-68
2023/11/10 10:06:19;;;;;;;3.07;2.87;;;15.40;95.60;;;;;;5092621;28;20924;-68
2023/11/10 10:08:45;;;;;;;2.93;2.73;;;15.70;94.50;;;;;;5090079;28;20175;-69
2023/11/10 10:11:13;;;;;;;2.70;2.60;;;16.00;93.80;;;;;;5092542;28;20452;-67
2023/11/10 10:13:40;;;;;;;3.23;3.03;;;15.70;93.00;;;;;;5093271;28;20164;-69
2023/11/10 10:16:11;;;;;;;3.10;3.00;;;15.80;93.40;;;;;;5089062;28;20518;-68
2023/11/10 10:18:41;;;;;;;3.57;3.37;;;16.10;92.90;;;;;;5074669;28;20926;-68
2023/11/10 10:21:07;;;;;;;2.53;2.43;;;16.20;91.60;;;;;;5092743;28;20418;-68
2023/11/10 10:23:33;;;;;;;3.53;3.37;;;16.60;91.20;;;;;;5092786;28;20832;-68
2023/11/10 10:25:59;;;;;;;3.00;2.80;;;16.80;90.70;;;;;;5057625;28;20811;-66
2023/11/10 10:28:25;;;;;;;4.80;4.50;;;16.90;90.20;;;;;;5052710;28;20764;-68
2023/11/10 10:30:51;;;;;;;2.50;2.30;;;17.10;89.30;;;;;;5052372;28;20408;-68
2023/11/10 10:33:17;;;;;;;3.87;3.63;;;17.10;90.00;;;;;;5052055;28;20256;-68
2023/11/10 10:35:43;;;;;;;5.07;2.50;;;17.10;87.90;;;;;;5052293;28;20406;-67
2023/11/10 10:38:14;;;;;;;3.23;2.93;;;17.30;87.80;;;;;;5034372;28;20225;-67
2023/11/10 10:40:40;;;;;;;2.90;2.47;;;17.30;85.80;;;;;;5034247;28;20420;-68
2023/11/10 10:43:07;;;;;;;1.90;1.80;;;17.40;86.50;;;;;;5051968;28;20404;-66
2023/11/10 10:45:35;;;;;;;3.80;3.70;;;17.40;86.90;;;;;;5065531;28;20414;-67
2023/11/10 10:48:04;;;;;;;4.10;3.10;;;17.30;85.40;;;;;;5089250;28;20430;-67
2023/11/10 10:50:32;;;;;;;2.70;2.50;;;17.30;85.60;;;;;;5092809;28;20432;-67
2023/11/10 10:53:00;;;;;;;3.33;2.53;;;17.10;85.30;;;;;;5092622;28;20401;-68
2023/11/10 10:55:27;;;;;;;4.93;4.63;;;17.10;86.60;;;;;;5092716;28;20413;-67
2023/11/10 10:57:54;;;;;;;2.90;2.70;;;17.30;87.00;;;;;;5068949;28;20434;-67
2023/11/10 11:00:20;;;;;;;3.07;2.80;;;17.60;86.00;;;;;;5069252;28;20423;-68
2023/11/10 11:02:58;;;;;;;3.00;2.90;;;17.50;84.50;;;;;;5053485;28;20453;-68
2023/11/10 11:06:10;;;;;;;2.87;2.77;;;17.50;84.20;;;;;;5062038;28;20408;-69
2023/11/10 11:09:01;;;;;;;2.60;2.40;;;17.50;82.40;;;;;;5072506;28;20406;-69
2023/11/10 11:11:30;;;;;;;3.70;3.40;;;17.10;82.70;;;;;;5034335;28;20388;-67
2023/11/10 11:14:23;;;;;;;2.07;1.93;;;16.90;84.50;;;;;;5018093;28;20420;-67
2023/11/10 11:17:21;;;;;;;3.63;3.40;;;16.50;84.10;;;;;;5064380;28;20463;-65
2023/11/10 11:19:48;;;;;;;3.10;2.07;;;16.40;85.80;;;;;;5061308;28;20515;-66
2023/11/10 11:22:14;;;;;;;3.53;3.33;;;16.40;86.40;;;;;;5070886;28;20473;-61
2023/11/10 11:24:44;;;;;;;3.33;3.10;;;16.50;86.00;;;;;;5071350;28;20423;-66
2023/11/10 11:27:11;;;;;;;4.00;2.80;;;16.60;85.00;;;;;;5065350;28;20415;-67
2023/11/10 11:29:41;;;;;;;3.13;3.03;;;16.80;85.60;;;;;;5067138;28;20422;-68
2023/11/10 11:32:12;;;;;;;2.87;2.43;;;16.80;84.00;;;;;;5069067;28;20419;-67
2023/11/10 11:34:38;;;;;;;2.77;2.50;;;16.70;84.20;;;;;;5061329;28;20418;-69
2023/11/10 11:37:05;;;;;;;2.60;2.40;;;16.60;83.50;;;;;;5071143;28;20890;-66
2023/11/10 11:39:35;;;;;;;3.10;2.80;;;16.40;84.40;;;;;;5067051;28;20473;-68
2023/11/10 11:42:08;;;;;;;2.80;2.60;;;16.30;85.50;;;;;;5063809;28;20454;-60
2023/11/10 11:44:35;;;;;;;3.73;2.30;;;15.90;84.70;;;;;;5066579;28;20894;-66
2023/11/10 11:47:06;;;;;;;2.70;2.53;;;15.70;86.60;;;;;;5058456;28;20419;-68
2023/11/10 11:49:31;;;;;;;2.47;2.27;;;15.60;87.20;;;;;;5069074;28;20510;-68
2023/11/10 11:51:57;;;;;;;4.13;3.17;;;15.40;87.70;;;;;;5068341;28;20435;-69
2023/11/10 11:54:29;;;;;;;2.20;2.10;;;15.30;88.40;;;;;;5073033;28;20831;-69
2023/11/10 11:56:57;;;;;;;2.60;2.50;;;15.20;89.50;;;;;;5072903;28;20572;-68
2023/11/10 11:59:23;;;;;;;2.67;2.57;;;15.20;90.10;;;;;;5073979;28;20460;-69
2023/11/10 12:01:50;;;;;;;3.10;2.90;;;15.10;90.30;;;;;;5075248;28;20402;-68
2023/11/10 12:04:16;;;;;;;3.50;3.30;;;15.10;90.40;;;;;;5074222;28;20768;-67
2023/11/10 12:06:42;;;;;;;2.67;2.50;;;14.50;90.80;;;;;;5073412;28;20411;-68
2023/11/10 12:09:08;;;;;;;3.03;2.40;;;14.40;91.50;;;;;;5072271;28;20440;-69
2023/11/10 12:11:36;;;;;;;3.10;2.70;;;14.20;91.60;;;;;;5075168;28;20413;-69
2023/11/10 12:14:06;;;;;;;3.23;2.73;;;13.70;92.80;;;;;;5074785;28;20411;-67
2023/11/10 12:16:36;;;;;;;5.43;2.80;;;13.60;94.20;;;;;;5073303;28;20486;-67
2023/11/10 12:19:03;;;;;;;3.10;2.90;;;13.50;95.00;;;;;;5073412;28;20485;-67
2023/11/10 12:21:33;;;;;;;3.53;3.20;;;13.60;95.00;;;;;;5071550;28;20762;-69
2023/11/10 12:24:07;;;;;;;3.77;3.00;;;13.50;94.90;;;;;;5072780;28;20430;-64
2023/11/10 12:26:38;;;;;;;3.13;2.70;;;13.30;94.90;;;;;;5071198;28;20510;-71
2023/11/10 12:29:09;;;;;;;2.57;2.37;;;13.30;95.40;;;;;;5074612;28;20817;-70
2023/11/10 12:31:35;;;;;;;3.10;2.90;;;13.20;95.80;;;;;;5073719;28;20738;-69
2023/11/10 12:34:04;;;;;;;2.97;2.27;;;13.20;96.00;;;;;;5074730;28;20419;-70
2023/11/10 12:36:33;;;;;;;3.07;2.80;;;13.20;96.30;;;;;;5074226;28;20403;-69
2023/11/10 12:39:00;;;;;;;2.50;2.30;;;13.30;96.20;;;;;;5074350;28;20478;-68
2023/11/10 12:41:27;;;;;;;2.50;2.10;;;13.30;95.80;;;;;;5073911;28;20414;-68
2023/11/10 12:43:57;;;;;;;2.33;2.23;;;13.30;96.00;;;;;;5073320;28;20472;-68
2023/11/10 12:46:23;;;;;;;2.83;2.60;;;13.10;96.20;;;;;;5073470;28;20498;-69